Time;durP1;ratioP1;P1;durP2;ratioP2;P2;SDS_P1;SDS_P2;PMS_P1;PMS_P2;Temp;Humidity;BMP_temperature;BMP_pressure;BME280_temperature;BME280_humidity;BME280_pressure;Samples;Min_cycle;Max_cycle;Signal;HPM_P1;HPM_P2
2022/08/20 00:00:52;;;;;;;22.00;16.80;;;21.10;99.90;;;;;;5211919;28;20437;-50
2022/08/20 00:03:27;;;;;;;24.63;16.27;;;21.20;99.90;;;;;;5223086;28;20305;-49
2022/08/20 00:06:02;;;;;;;20.63;16.97;;;21.10;99.90;;;;;;5221888;28;20843;-50
2022/08/20 00:08:35;;;;;;;19.43;14.60;;;21.10;99.90;;;;;;5211083;28;20464;-49
2022/08/20 00:11:08;;;;;;;24.40;17.50;;;21.00;99.90;;;;;;5211386;28;20438;-49
2022/08/20 00:13:42;;;;;;;18.97;14.67;;;21.00;99.90;;;;;;5220981;28;20806;-51
2022/08/20 00:16:15;;;;;;;21.30;17.37;;;21.00;99.90;;;;;;5216484;28;20453;-48
2022/08/20 00:18:46;;;;;;;27.60;18.57;;;21.00;99.90;;;;;;5225893;28;20421;-49
2022/08/20 00:21:19;;;;;;;29.03;18.83;;;21.00;99.90;;;;;;5222765;28;20432;-49
2022/08/20 00:23:51;;;;;;;34.27;20.30;;;20.90;99.90;;;;;;5219970;28;20454;-49
2022/08/20 00:26:23;;;;;;;25.13;17.40;;;20.90;99.90;;;;;;5217987;28;20962;-50
2022/08/20 00:28:54;;;;;;;26.27;19.30;;;20.90;99.90;;;;;;5219066;28;20778;-49
2022/08/20 00:31:25;;;;;;;36.83;20.43;;;21.00;99.90;;;;;;5223690;28;20556;-50
2022/08/20 00:33:56;;;;;;;28.17;17.93;;;20.90;99.90;;;;;;5237347;28;20293;-47
2022/08/20 00:36:26;;;;;;;24.07;16.87;;;21.00;99.90;;;;;;5232712;28;20239;-50
2022/08/20 00:38:58;;;;;;;24.90;17.43;;;21.00;99.90;;;;;;5221761;28;20184;-49
2022/08/20 00:41:29;;;;;;;33.07;17.37;;;21.00;99.90;;;;;;5219931;28;20184;-49
2022/08/20 00:44:13;;;;;;;28.03;16.77;;;20.90;99.90;;;;;;5213393;28;20480;-50
2022/08/20 00:46:44;;;;;;;26.97;16.73;;;20.90;99.90;;;;;;5229523;28;20540;-50
2022/08/20 00:49:24;;;;;;;21.37;17.40;;;20.80;99.90;;;;;;5232335;28;20521;-49
2022/08/20 00:52:06;;;;;;;21.10;16.10;;;20.80;99.90;;;;;;5215972;28;20422;-49
2022/08/20 00:54:42;;;;;;;22.73;18.40;;;20.80;99.90;;;;;;5213860;28;20448;-50
2022/08/20 00:57:20;;;;;;;20.67;16.50;;;20.70;99.90;;;;;;5230915;28;20421;-49
2022/08/20 00:59:52;;;;;;;24.33;17.20;;;20.70;99.90;;;;;;5230162;28;20516;-49
2022/08/20 01:02:26;;;;;;;24.17;18.27;;;20.70;99.90;;;;;;5227855;28;20457;-48
2022/08/20 01:04:57;;;;;;;31.33;18.90;;;20.60;99.90;;;;;;5221579;28;20484;-49
2022/08/20 01:07:33;;;;;;;20.97;17.70;;;20.60;99.90;;;;;;5216501;28;20434;-49
2022/08/20 01:10:19;;;;;;;21.50;16.27;;;20.60;99.90;;;;;;5228406;28;20468;-49
2022/08/20 01:12:50;;;;;;;18.93;16.03;;;20.60;99.90;;;;;;5215851;28;20458;-50
2022/08/20 01:15:23;;;;;;;27.37;19.30;;;20.60;99.90;;;;;;5228136;28;20444;-48
2022/08/20 01:17:57;;;;;;;24.80;18.80;;;20.60;99.90;;;;;;5214201;28;20434;-50
2022/08/20 01:20:32;;;;;;;21.70;15.33;;;20.60;99.90;;;;;;5226982;28;20897;-48
2022/08/20 01:23:29;;;;;;;19.40;15.17;;;20.60;99.90;;;;;;5228698;28;20433;-50
2022/08/20 01:26:16;;;;;;;19.20;16.10;;;20.80;99.90;;;;;;5224698;28;20461;-49
2022/08/20 01:28:51;;;;;;;19.13;14.70;;;20.70;99.90;;;;;;5211353;28;20426;-49
2022/08/20 01:31:30;;;;;;;21.57;16.60;;;20.80;99.90;;;;;;5223734;28;20487;-49
2022/08/20 01:34:02;;;;;;;24.37;16.53;;;20.70;99.90;;;;;;5215514;28;20466;-49
2022/08/20 01:36:39;;;;;;;24.90;16.03;;;20.80;99.90;;;;;;5220680;28;20437;-49
2022/08/20 01:39:12;;;;;;;21.50;16.80;;;20.70;99.90;;;;;;5213712;28;20442;-48
2022/08/20 01:42:11;;;;;;;20.87;16.27;;;20.70;99.90;;;;;;5217394;28;20487;-49
2022/08/20 01:44:43;;;;;;;20.80;15.60;;;20.70;99.90;;;;;;5221107;28;20438;-49
2022/08/20 01:47:24;;;;;;;20.57;15.40;;;20.60;99.90;;;;;;5214549;28;20426;-48
2022/08/20 01:49:59;;;;;;;18.30;14.97;;;20.70;99.90;;;;;;5220749;28;20438;-49
2022/08/20 01:52:41;;;;;;;22.83;14.40;;;20.60;99.90;;;;;;5219615;28;20486;-50
2022/08/20 01:55:12;;;;;;;17.67;14.43;;;20.70;99.90;;;;;;5216114;28;20441;-48
2022/08/20 01:57:43;;;;;;;19.17;13.80;;;20.60;99.90;;;;;;5229019;28;20759;-49
2022/08/20 02:00:17;;;;;;;18.70;14.77;;;20.60;99.90;;;;;;5219949;28;20186;-48
2022/08/20 02:02:49;;;;;;;17.73;13.90;;;20.60;99.90;;;;;;5220583;28;20437;-49
2022/08/20 02:05:20;;;;;;;16.60;12.57;;;20.60;99.90;;;;;;5232009;22;20453;-49
2022/08/20 02:07:51;;;;;;;16.80;13.63;;;20.60;99.90;;;;;;5118934;28;20442;-48
2022/08/20 02:10:22;;;;;;;17.90;13.97;;;20.50;99.90;;;;;;5125318;28;20429;-50
2022/08/20 02:12:53;;;;;;;14.30;12.17;;;20.40;99.90;;;;;;5134875;28;20213;-47
2022/08/20 02:15:23;;;;;;;18.20;12.83;;;20.40;99.90;;;;;;5113856;28;20445;-50
2022/08/20 02:17:56;;;;;;;16.83;13.60;;;20.20;99.90;;;;;;5117831;28;20618;-51
2022/08/20 02:20:28;;;;;;;15.17;13.00;;;20.10;99.90;;;;;;5122916;28;20182;-51
2022/08/20 02:22:59;;;;;;;13.53;12.07;;;20.00;99.90;;;;;;5117062;28;20981;-51
2022/08/20 02:25:33;;;;;;;11.70;10.20;;;20.00;99.90;;;;;;5118420;28;20454;-49
2022/08/20 02:28:10;;;;;;;10.90;9.40;;;19.90;99.90;;;;;;5125677;28;20716;-50
2022/08/20 02:30:46;;;;;;;11.93;10.60;;;19.80;99.90;;;;;;5136260;28;20919;-50
2022/08/20 02:33:19;;;;;;;15.83;10.93;;;19.80;99.90;;;;;;5122365;28;20466;-50
2022/08/20 02:35:52;;;;;;;13.93;12.50;;;19.60;99.90;;;;;;5121325;28;20457;-49
2022/08/20 02:38:23;;;;;;;12.80;10.70;;;19.60;99.90;;;;;;5124330;28;20465;-51
2022/08/20 02:40:54;;;;;;;15.50;12.03;;;19.50;99.90;;;;;;5119365;28;20877;-49
2022/08/20 02:43:24;;;;;;;16.50;13.93;;;19.40;99.90;;;;;;5118102;28;20183;-50
2022/08/20 02:45:55;;;;;;;22.70;16.40;;;19.40;99.90;;;;;;5124015;28;20449;-50
2022/08/20 02:48:26;;;;;;;22.53;18.07;;;19.30;99.90;;;;;;5133427;28;20222;-49
2022/08/20 02:51:00;;;;;;;20.00;17.00;;;19.30;99.90;;;;;;5121699;28;20186;-49
2022/08/20 02:53:35;;;;;;;23.10;17.90;;;19.30;99.90;;;;;;5120253;28;20477;-49
2022/08/20 02:56:06;;;;;;;32.70;21.47;;;19.20;99.90;;;;;;5116359;28;20450;-50
2022/08/20 02:58:39;;;;;;;24.83;18.30;;;19.30;99.90;;;;;;5119117;28;20438;-50
2022/08/20 03:01:13;;;;;;;25.00;18.80;;;19.20;99.90;;;;;;5117755;28;20441;-49
2022/08/20 03:03:44;;;;;;;23.63;16.63;;;19.30;99.90;;;;;;5131598;28;20459;-48
2022/08/20 03:06:15;;;;;;;20.73;16.90;;;19.30;99.90;;;;;;5110438;28;20482;-49
2022/08/20 03:08:46;;;;;;;31.43;21.80;;;19.30;99.90;;;;;;5117957;28;20193;-48
2022/08/20 03:11:17;;;;;;;23.30;18.50;;;19.30;99.90;;;;;;5124598;28;20591;-49
2022/08/20 03:13:47;;;;;;;27.43;19.50;;;19.40;99.90;;;;;;5116062;28;20219;-50
2022/08/20 03:16:18;;;;;;;47.50;25.23;;;19.40;99.90;;;;;;5117398;28;20895;-49
2022/08/20 03:18:49;;;;;;;66.77;30.77;;;19.30;99.90;;;;;;5121687;28;20190;-48
2022/08/20 03:21:19;;;;;;;30.93;22.03;;;19.30;99.90;;;;;;5119037;28;20441;-50
2022/08/20 03:23:50;;;;;;;53.23;27.70;;;19.40;99.90;;;;;;5116366;28;20236;-49
2022/08/20 03:26:21;;;;;;;50.87;28.50;;;19.40;99.90;;;;;;5117696;28;20547;-50
2022/08/20 03:28:51;;;;;;;42.93;26.30;;;19.40;99.90;;;;;;5117737;28;20488;-49
2022/08/20 03:31:22;;;;;;;46.27;22.80;;;19.40;99.90;;;;;;5121135;28;20236;-49
2022/08/20 03:33:52;;;;;;;62.80;31.83;;;19.40;99.90;;;;;;5124248;28;20214;-49
2022/08/20 03:36:26;;;;;;;39.07;25.43;;;19.40;99.90;;;;;;5110618;28;20302;-49
2022/08/20 03:38:59;;;;;;;38.50;24.50;;;19.40;99.90;;;;;;5117345;28;20186;-49
2022/08/20 03:41:31;;;;;;;35.97;24.63;;;19.40;99.90;;;;;;5121432;28;20474;-49
2022/08/20 03:44:01;;;;;;;37.93;24.93;;;19.50;99.90;;;;;;5117645;28;20435;-47
2022/08/20 03:46:33;;;;;;;41.20;25.07;;;19.40;99.90;;;;;;5120030;28;20516;-49
2022/08/20 03:49:03;;;;;;;53.53;29.47;;;19.40;99.90;;;;;;5121099;28;20186;-50
2022/08/20 03:51:34;;;;;;;78.27;33.83;;;19.40;99.90;;;;;;5103946;28;20528;-49
2022/08/20 03:54:05;;;;;;;43.83;26.93;;;19.40;99.90;;;;;;5111087;28;20250;-49
2022/08/20 03:56:35;;;;;;;43.90;27.40;;;19.40;99.90;;;;;;5129295;28;20520;-49
2022/08/20 03:59:07;;;;;;;64.03;32.07;;;19.40;99.90;;;;;;5118180;28;20179;-49
2022/08/20 04:01:37;;;;;;;50.23;30.20;;;19.40;99.90;;;;;;5119876;28;20590;-50
2022/08/20 04:04:09;;;;;;;45.33;28.23;;;19.40;99.90;;;;;;5124914;28;20508;-48
2022/08/20 04:06:41;;;;;;;51.63;31.40;;;19.40;99.90;;;;;;5120676;28;20222;-48
2022/08/20 04:09:12;;;;;;;58.37;30.17;;;19.40;99.90;;;;;;5114295;28;20968;-48
2022/08/20 04:11:43;;;;;;;70.47;36.37;;;19.40;99.90;;;;;;5113870;28;20447;-47
2022/08/20 04:14:14;;;;;;;50.27;29.87;;;19.40;99.90;;;;;;5113200;28;21005;-48
2022/08/20 04:16:45;;;;;;;86.20;39.40;;;19.30;99.90;;;;;;5117662;28;20202;-49
2022/08/20 04:19:15;;;;;;;59.43;31.67;;;19.30;99.90;;;;;;5120340;28;20179;-48
2022/08/20 04:21:47;;;;;;;57.93;32.33;;;19.20;99.90;;;;;;5120305;28;20178;-49
2022/08/20 04:24:17;;;;;;;44.80;28.53;;;19.20;99.90;;;;;;5115062;28;20264;-48
2022/08/20 04:26:48;;;;;;;97.23;41.27;;;19.20;99.90;;;;;;5112084;28;20561;-49
2022/08/20 04:29:19;;;;;;;47.33;28.47;;;19.20;99.90;;;;;;5115286;28;20714;-48
2022/08/20 04:31:51;;;;;;;39.53;26.27;;;19.20;99.90;;;;;;5120122;28;20195;-50
2022/08/20 04:34:21;;;;;;;60.27;33.67;;;19.20;99.90;;;;;;5126151;28;20484;-50
2022/08/20 04:36:52;;;;;;;72.87;37.40;;;19.20;99.90;;;;;;5117159;28;20430;-48
2022/08/20 04:39:23;;;;;;;81.03;37.23;;;19.30;99.90;;;;;;5114349;28;20275;-49
2022/08/20 04:41:53;;;;;;;59.10;32.83;;;19.20;99.90;;;;;;5115861;28;20189;-47
2022/08/20 04:44:24;;;;;;;67.30;35.90;;;19.20;99.90;;;;;;5119100;28;20527;-50
2022/08/20 04:46:55;;;;;;;55.30;32.00;;;19.30;99.90;;;;;;5117487;28;20566;-50
2022/08/20 04:49:26;;;;;;;96.13;43.83;;;19.30;99.90;;;;;;5123580;28;20361;-48
2022/08/20 04:51:57;;;;;;;102.90;46.93;;;19.20;99.90;;;;;;5126458;28;20191;-48
2022/08/20 04:54:27;;;;;;;47.20;29.87;;;19.20;99.90;;;;;;5122497;28;20982;-49
2022/08/20 04:57:00;;;;;;;81.70;39.90;;;19.20;99.90;;;;;;5116094;28;20332;-49
2022/08/20 04:59:31;;;;;;;71.03;34.00;;;19.30;99.90;;;;;;5120806;28;20172;-49
2022/08/20 05:02:01;;;;;;;54.53;29.63;;;19.30;99.90;;;;;;5109307;28;20487;-49
2022/08/20 05:04:32;;;;;;;47.60;30.90;;;19.40;99.90;;;;;;5115443;28;20225;-49
2022/08/20 05:07:02;;;;;;;58.23;32.13;;;19.50;99.90;;;;;;5106383;28;20219;-49
2022/08/20 05:09:33;;;;;;;52.97;31.43;;;19.60;99.90;;;;;;5120031;28;20186;-50
2022/08/20 05:12:04;;;;;;;47.20;28.47;;;19.60;99.90;;;;;;5118481;28;20190;-49
2022/08/20 05:14:35;;;;;;;45.23;29.20;;;19.60;99.90;;;;;;5120179;28;20292;-49
2022/08/20 05:17:06;;;;;;;63.67;35.37;;;19.60;99.90;;;;;;5120434;28;20340;-49
2022/08/20 05:19:36;;;;;;;59.93;30.10;;;19.60;99.90;;;;;;5132737;28;20258;-50
2022/08/20 05:22:07;;;;;;;42.37;27.40;;;19.60;99.90;;;;;;5110501;28;20669;-49
2022/08/20 05:24:38;;;;;;;44.90;28.63;;;19.50;99.90;;;;;;5116773;28;20205;-49
2022/08/20 05:27:09;;;;;;;49.67;28.70;;;19.50;99.90;;;;;;5104618;28;20260;-50
2022/08/20 05:29:40;;;;;;;37.13;24.77;;;19.50;99.90;;;;;;5120003;28;20435;-50
2022/08/20 05:32:11;;;;;;;49.97;29.90;;;19.50;99.90;;;;;;5120797;28;20669;-49
2022/08/20 05:34:42;;;;;;;40.97;27.10;;;19.50;99.90;;;;;;5117711;28;20463;-50
2022/08/20 05:37:13;;;;;;;62.33;32.90;;;19.50;99.90;;;;;;5117712;29;20194;-50
2022/08/20 05:39:43;;;;;;;45.53;30.87;;;19.50;99.90;;;;;;5122447;28;20189;-49
2022/08/20 05:42:14;;;;;;;39.63;26.50;;;19.40;99.90;;;;;;5117775;28;20232;-50
2022/08/20 05:44:45;;;;;;;50.30;31.00;;;19.40;99.90;;;;;;5127343;28;20179;-50
2022/08/20 05:47:17;;;;;;;62.93;35.40;;;19.50;99.90;;;;;;5123020;28;20198;-50
2022/08/20 05:49:47;;;;;;;43.57;28.60;;;19.50;99.90;;;;;;5122060;28;20427;-51
2022/08/20 05:52:18;;;;;;;36.20;26.50;;;19.50;99.90;;;;;;5126847;28;20917;-49
2022/08/20 05:54:48;;;;;;;42.93;26.27;;;19.40;99.90;;;;;;5113574;28;20225;-48
2022/08/20 05:57:19;;;;;;;48.63;29.50;;;19.60;99.90;;;;;;5119579;28;20309;-50
2022/08/20 05:59:50;;;;;;;46.00;30.53;;;19.60;99.90;;;;;;5119113;28;20178;-50
2022/08/20 06:05:10;;;;;;;58.27;34.13;;;19.70;99.90;;;;;;5109143;28;20188;-50
2022/08/20 06:07:40;;;;;;;48.47;29.00;;;19.80;99.90;;;;;;5121453;28;20438;-49
2022/08/20 06:10:11;;;;;;;46.10;27.30;;;19.80;99.90;;;;;;5123401;28;20248;-52
2022/08/20 06:12:45;;;;;;;37.87;24.50;;;19.80;99.90;;;;;;5120127;28;20230;-51
2022/08/20 06:15:16;;;;;;;46.93;28.13;;;19.70;99.90;;;;;;5112788;28;20445;-49
2022/08/20 06:17:46;;;;;;;61.80;35.23;;;19.60;99.90;;;;;;5114685;28;20429;-48
2022/08/20 06:20:17;;;;;;;42.07;26.00;;;19.60;99.90;;;;;;5119372;28;20187;-50
2022/08/20 06:22:48;;;;;;;39.33;26.43;;;19.40;99.90;;;;;;5118445;28;20592;-50
2022/08/20 06:25:18;;;;;;;40.07;26.87;;;19.30;99.90;;;;;;5114474;29;20204;-50
2022/08/20 06:27:49;;;;;;;36.63;27.07;;;19.30;99.90;;;;;;5121324;28;20188;-50
2022/08/20 06:30:20;;;;;;;52.47;31.57;;;19.40;99.90;;;;;;5122032;28;20190;-50
2022/08/20 06:32:51;;;;;;;53.50;31.90;;;19.40;99.90;;;;;;5121385;28;20216;-50
2022/08/20 06:35:22;;;;;;;47.70;26.93;;;19.30;99.90;;;;;;5118653;28;20443;-49
2022/08/20 06:37:53;;;;;;;45.53;26.97;;;19.40;99.90;;;;;;5119601;28;20183;-51
2022/08/20 06:40:27;;;;;;;76.67;36.80;;;19.40;99.90;;;;;;5121749;29;20418;-50
2022/08/20 06:42:57;;;;;;;44.97;29.00;;;19.40;99.90;;;;;;5112599;28;20256;-49
2022/08/20 06:45:31;;;;;;;48.47;29.80;;;19.50;99.90;;;;;;5123288;28;20925;-50
2022/08/20 06:48:08;;;;;;;61.00;33.63;;;19.60;99.90;;;;;;5121585;28;20186;-50
2022/08/20 06:50:42;;;;;;;38.03;26.33;;;19.60;99.90;;;;;;5121208;28;20429;-49
2022/08/20 06:53:15;;;;;;;55.57;32.23;;;19.60;99.90;;;;;;5115711;28;20470;-47
2022/08/20 06:55:57;;;;;;;50.47;28.97;;;19.70;99.90;;;;;;5121972;28;20461;-48
2022/08/20 06:58:31;;;;;;;48.73;26.67;;;19.80;99.90;;;;;;5117734;28;20448;-47
2022/08/20 07:01:01;;;;;;;58.80;33.73;;;19.80;99.90;;;;;;5116412;28;20466;-47
2022/08/20 07:03:33;;;;;;;40.00;27.27;;;19.80;99.90;;;;;;5117191;28;20923;-46
2022/08/20 07:06:04;;;;;;;41.90;25.37;;;19.80;99.90;;;;;;5113316;28;20218;-46
2022/08/20 07:08:35;;;;;;;50.90;29.20;;;19.70;99.90;;;;;;5131644;28;20445;-45
2022/08/20 07:11:05;;;;;;;59.27;31.57;;;19.70;99.90;;;;;;5118636;28;20813;-47
2022/08/20 07:13:36;;;;;;;41.10;28.27;;;19.70;99.90;;;;;;5114881;29;20221;-47
2022/08/20 07:16:08;;;;;;;42.90;27.60;;;19.80;99.90;;;;;;5121853;28;20291;-49
2022/08/20 07:18:39;;;;;;;40.97;27.70;;;19.80;99.90;;;;;;5102652;28;20475;-46
2022/08/20 07:21:11;;;;;;;42.17;26.17;;;19.90;99.90;;;;;;5131336;28;20186;-45
2022/08/20 07:23:41;;;;;;;40.33;26.00;;;19.90;99.90;;;;;;5116153;28;20226;-47
2022/08/20 07:26:12;;;;;;;49.53;30.60;;;19.80;99.90;;;;;;5119639;28;20486;-46
2022/08/20 07:28:42;;;;;;;42.57;26.33;;;19.90;99.90;;;;;;5117099;28;20194;-46
2022/08/20 07:34:03;;;;;;;52.47;30.37;;;19.90;99.90;;;;;;5121016;28;20222;-44
2022/08/20 07:36:34;;;;;;;41.37;26.20;;;19.90;99.90;;;;;;5116179;28;20830;-47
2022/08/20 07:39:05;;;;;;;51.17;27.57;;;20.00;99.90;;;;;;5118676;28;20663;-48
2022/08/20 07:41:36;;;;;;;37.47;25.37;;;20.00;99.90;;;;;;5125270;28;20277;-47
2022/08/20 07:44:06;;;;;;;37.60;25.67;;;20.00;99.90;;;;;;5119682;28;20573;-46
2022/08/20 07:46:37;;;;;;;42.27;25.80;;;20.10;99.90;;;;;;5118359;28;20738;-51
2022/08/20 07:49:08;;;;;;;38.07;25.87;;;20.10;99.90;;;;;;5120995;28;20225;-48
2022/08/20 07:51:39;;;;;;;39.30;25.20;;;20.10;99.90;;;;;;5104719;28;20561;-49
2022/08/20 07:54:10;;;;;;;37.20;25.23;;;20.10;99.90;;;;;;5117567;28;20470;-47
2022/08/20 07:56:40;;;;;;;40.43;26.20;;;20.10;99.90;;;;;;5118962;28;20564;-47
2022/08/20 07:59:12;;;;;;;46.63;29.17;;;20.00;99.90;;;;;;5126717;28;20246;-48
2022/08/20 08:01:43;;;;;;;57.37;30.03;;;20.10;99.90;;;;;;5121387;28;20194;-48
2022/08/20 08:04:14;;;;;;;52.30;27.40;;;19.90;99.90;;;;;;5123293;28;20786;-49
2022/08/20 08:06:45;;;;;;;47.77;28.73;;;20.00;99.90;;;;;;5117577;28;20571;-46
2022/08/20 08:09:16;;;;;;;45.70;29.57;;;20.10;99.90;;;;;;5119507;28;20443;-47
2022/08/20 08:11:48;;;;;;;62.80;34.13;;;20.10;99.90;;;;;;5115911;28;20546;-48
2022/08/20 08:14:25;;;;;;;66.17;31.83;;;20.00;99.90;;;;;;5115227;28;20637;-47
2022/08/20 08:16:59;;;;;;;48.20;27.00;;;20.00;99.90;;;;;;5131481;28;20524;-47
2022/08/20 08:19:37;;;;;;;33.43;23.67;;;20.10;99.90;;;;;;5121858;28;20504;-47
2022/08/20 08:22:13;;;;;;;56.77;32.40;;;20.10;99.90;;;;;;5120427;28;20930;-49
2022/08/20 08:24:45;;;;;;;49.87;29.10;;;20.20;99.90;;;;;;5129839;28;20926;-47
2022/08/20 08:27:20;;;;;;;50.37;30.87;;;20.30;99.90;;;;;;5115515;28;20453;-46
2022/08/20 08:29:51;;;;;;;48.43;30.10;;;20.40;99.90;;;;;;5121605;28;20437;-48
2022/08/20 08:32:23;;;;;;;44.20;25.60;;;20.50;99.90;;;;;;5120418;28;21020;-45
2022/08/20 08:34:53;;;;;;;48.57;30.80;;;20.60;99.90;;;;;;5118090;29;20838;-47
2022/08/20 08:37:24;;;;;;;60.30;32.17;;;20.50;99.90;;;;;;5121777;28;20500;-49
2022/08/20 08:39:54;;;;;;;36.90;26.13;;;20.60;99.90;;;;;;5126438;28;20537;-45
2022/08/20 08:42:39;;;;;;;48.50;29.27;;;20.60;99.90;;;;;;5120482;28;20729;-48
2022/08/20 08:45:15;;;;;;;40.57;26.47;;;20.60;99.90;;;;;;5118749;28;20194;-47
2022/08/20 08:47:47;;;;;;;54.53;33.27;;;20.70;99.90;;;;;;5125941;28;20837;-47
2022/08/20 08:50:24;;;;;;;41.40;26.33;;;20.80;99.90;;;;;;5122053;28;20438;-48
2022/08/20 08:52:58;;;;;;;51.20;27.57;;;20.80;99.90;;;;;;5124785;28;20944;-49
2022/08/20 08:55:29;;;;;;;43.67;27.07;;;20.80;99.90;;;;;;5107398;28;20820;-50
2022/08/20 08:58:02;;;;;;;42.20;25.70;;;20.90;99.90;;;;;;5118396;28;20496;-48
2022/08/20 09:00:33;;;;;;;41.10;27.60;;;20.90;99.90;;;;;;5122345;28;20809;-48
2022/08/20 09:03:18;;;;;;;46.80;26.00;;;21.10;99.90;;;;;;5106936;29;20445;-48
2022/08/20 09:05:53;;;;;;;39.57;25.53;;;21.20;99.90;;;;;;5112814;28;20486;-49
2022/08/20 09:08:48;;;;;;;35.20;23.80;;;21.30;99.90;;;;;;5114514;28;20803;-49
2022/08/20 09:11:21;;;;;;;42.17;27.73;;;21.60;99.90;;;;;;5120375;28;20962;-48
2022/08/20 09:13:53;;;;;;;37.80;26.83;;;21.70;99.90;;;;;;5124286;28;20465;-49
2022/08/20 09:16:24;;;;;;;44.60;26.03;;;21.70;99.90;;;;;;5123429;28;20576;-48
2022/08/20 09:18:55;;;;;;;36.37;23.27;;;21.70;99.90;;;;;;5115488;28;20977;-49
2022/08/20 09:21:25;;;;;;;38.37;25.20;;;21.90;99.90;;;;;;5118321;28;20541;-47
2022/08/20 09:23:56;;;;;;;35.73;23.50;;;22.10;99.90;;;;;;5119994;28;20253;-49
2022/08/20 09:26:27;;;;;;;36.50;22.67;;;22.20;99.90;;;;;;5120499;28;20278;-50
2022/08/20 09:28:57;;;;;;;36.97;22.60;;;22.20;99.90;;;;;;5112106;28;20264;-48
2022/08/20 09:31:28;;;;;;;33.93;23.50;;;22.20;99.90;;;;;;5114948;28;20365;-48
2022/08/20 09:33:59;;;;;;;40.63;24.23;;;22.20;99.90;;;;;;5112966;28;20237;-48
2022/08/20 09:36:29;;;;;;;28.00;19.60;;;22.30;99.90;;;;;;5121627;28;20264;-48
2022/08/20 09:39:01;;;;;;;35.70;22.53;;;22.40;99.90;;;;;;5118860;28;20221;-48
2022/08/20 09:41:31;;;;;;;35.63;23.17;;;22.50;99.90;;;;;;5119945;28;20576;-48
2022/08/20 09:44:02;;;;;;;35.63;22.43;;;22.50;99.90;;;;;;5119658;28;20450;-48
2022/08/20 09:46:33;;;;;;;35.80;24.97;;;22.60;99.90;;;;;;5117805;28;20218;-48
2022/08/20 09:49:03;;;;;;;37.70;22.80;;;22.70;99.90;;;;;;5116786;28;20202;-49
2022/08/20 09:51:34;;;;;;;48.13;26.10;;;22.70;99.90;;;;;;5123191;28;20186;-48
2022/08/20 09:54:04;;;;;;;34.10;22.43;;;22.70;99.90;;;;;;5159432;28;20241;-47
2022/08/20 09:56:35;;;;;;;45.80;25.50;;;22.60;99.90;;;;;;5117989;28;20202;-48
2022/08/20 09:59:06;;;;;;;42.40;21.97;;;22.50;99.90;;;;;;5121853;28;20216;-49
2022/08/20 10:01:37;;;;;;;29.73;20.17;;;22.40;99.90;;;;;;5120500;28;20665;-46
2022/08/20 10:04:08;;;;;;;30.23;20.07;;;22.40;99.90;;;;;;5121446;28;20194;-48
2022/08/20 10:06:40;;;;;;;33.87;22.37;;;22.40;99.90;;;;;;5206484;28;20286;-48
2022/08/20 10:09:10;;;;;;;35.57;22.30;;;22.60;99.90;;;;;;5122817;28;20501;-50
2022/08/20 10:11:41;;;;;;;35.53;21.33;;;22.80;99.90;;;;;;5123531;28;20474;-49
2022/08/20 10:14:12;;;;;;;31.27;20.03;;;22.70;99.90;;;;;;5122296;28;20552;-49
2022/08/20 10:16:42;;;;;;;28.10;19.10;;;22.60;99.90;;;;;;5116693;28;20218;-48
2022/08/20 10:19:13;;;;;;;39.60;19.90;;;22.80;99.90;;;;;;5121872;28;20183;-49
2022/08/20 10:21:43;;;;;;;37.40;18.90;;;23.10;99.90;;;;;;5122323;28;20649;-50
2022/08/20 10:24:14;;;;;;;32.33;18.37;;;23.20;99.90;;;;;;5122723;28;20198;-47
2022/08/20 10:26:45;;;;;;;31.20;19.60;;;23.20;99.90;;;;;;5121385;28;20211;-49
2022/08/20 10:29:15;;;;;;;23.90;16.97;;;23.00;99.90;;;;;;5123659;28;20320;-49
2022/08/20 10:31:46;;;;;;;25.13;15.83;;;23.10;99.90;;;;;;5112667;28;20576;-49
2022/08/20 10:34:17;;;;;;;24.07;16.57;;;23.30;99.90;;;;;;5122245;28;20224;-47
2022/08/20 10:36:47;;;;;;;18.30;13.33;;;23.60;99.90;;;;;;5113803;28;20338;-47
2022/08/20 10:39:18;;;;;;;15.37;12.87;;;23.70;99.90;;;;;;5108947;28;20300;-49
2022/08/20 10:41:49;;;;;;;18.20;13.10;;;24.00;99.90;;;;;;5118793;28;20190;-46
2022/08/20 10:44:19;;;;;;;16.70;13.20;;;24.20;99.90;;;;;;5122006;28;20190;-48
2022/08/20 10:46:50;;;;;;;19.00;13.90;;;24.40;99.90;;;;;;5120463;28;20218;-47
2022/08/20 10:49:20;;;;;;;26.93;14.03;;;24.30;99.90;;;;;;5122403;28;20626;-46
2022/08/20 10:51:51;;;;;;;18.30;12.20;;;24.10;99.90;;;;;;5113833;28;20190;-52
2022/08/20 10:54:21;;;;;;;16.20;12.50;;;24.10;99.90;;;;;;5111584;28;20306;-47
2022/08/20 10:56:52;;;;;;;19.13;12.10;;;24.10;99.90;;;;;;5111686;28;20252;-48
2022/08/20 10:59:22;;;;;;;17.77;12.00;;;24.30;99.90;;;;;;5117022;28;20318;-50
2022/08/20 11:01:53;;;;;;;18.50;11.87;;;24.50;99.90;;;;;;5115605;28;20607;-46
2022/08/20 11:04:24;;;;;;;16.33;11.87;;;24.80;99.90;;;;;;5118055;28;20646;-47
2022/08/20 11:06:54;;;;;;;20.17;13.90;;;24.90;99.90;;;;;;5114433;28;20257;-47
2022/08/20 11:09:27;;;;;;;17.70;13.10;;;24.90;99.90;;;;;;5113008;28;20634;-49
2022/08/20 11:11:58;;;;;;;18.77;13.43;;;24.70;99.90;;;;;;5110243;28;20546;-48
2022/08/20 11:14:28;;;;;;;17.90;11.57;;;24.40;99.90;;;;;;5119072;28;20469;-50
2022/08/20 11:17:00;;;;;;;18.27;11.37;;;24.10;99.90;;;;;;5132470;28;20202;-47
2022/08/20 11:19:31;;;;;;;17.20;10.13;;;24.10;99.90;;;;;;5113534;28;20191;-46
2022/08/20 11:22:02;;;;;;;12.63;8.93;;;24.00;99.90;;;;;;5120654;28;20472;-47
2022/08/20 11:24:33;;;;;;;11.07;9.97;;;24.00;99.90;;;;;;5111472;28;20187;-47
2022/08/20 11:27:07;;;;;;;9.90;7.67;;;24.00;99.90;;;;;;5119869;28;20296;-47
2022/08/20 11:29:38;;;;;;;18.87;11.20;;;24.10;99.90;;;;;;5130062;28;20827;-46
2022/08/20 11:32:09;;;;;;;12.50;7.40;;;24.20;99.90;;;;;;5118754;28;20429;-47
2022/08/20 11:34:39;;;;;;;9.13;8.00;;;24.40;99.90;;;;;;5111822;28;20214;-49
2022/08/20 11:37:12;;;;;;;9.33;8.40;;;24.40;99.90;;;;;;5112832;28;20214;-47
2022/08/20 11:39:43;;;;;;;8.40;7.57;;;24.40;99.90;;;;;;5123469;28;20189;-49
2022/08/20 11:42:14;;;;;;;10.37;7.60;;;24.40;99.90;;;;;;5121637;28;21742;-49
2022/08/20 11:44:44;;;;;;;17.80;8.27;;;24.40;99.90;;;;;;5118424;28;20561;-47
2022/08/20 11:47:35;;;;;;;12.20;7.00;;;24.30;99.90;;;;;;5116362;28;20222;-48
2022/08/20 11:50:13;;;;;;;6.60;6.00;;;24.00;99.90;;;;;;5117429;28;20185;-50
2022/08/20 11:52:43;;;;;;;8.50;6.90;;;23.90;99.90;;;;;;5113524;28;20445;-51
2022/08/20 11:55:16;;;;;;;10.60;6.83;;;23.60;99.90;;;;;;5124587;28;20445;-48
2022/08/20 11:57:47;;;;;;;8.83;6.17;;;23.50;99.90;;;;;;5162527;28;20496;-49
2022/08/20 12:00:20;;;;;;;5.43;5.03;;;23.50;99.90;;;;;;5144593;28;20449;-51
2022/08/20 12:02:51;;;;;;;10.00;8.00;;;23.50;99.90;;;;;;5119249;28;20205;-49
2022/08/20 12:05:22;;;;;;;14.10;7.13;;;23.70;99.90;;;;;;5123083;28;20457;-49
2022/08/20 12:07:52;;;;;;;8.67;7.10;;;23.70;99.90;;;;;;5121262;28;20247;-51
2022/08/20 12:10:25;;;;;;;13.00;8.40;;;23.70;99.90;;;;;;5108892;28;21076;-48
2022/08/20 12:12:56;;;;;;;8.47;7.70;;;23.70;99.90;;;;;;5120598;28;20624;-48
2022/08/20 12:15:26;;;;;;;8.80;6.73;;;23.70;99.90;;;;;;5126204;28;20464;-50
2022/08/20 12:17:57;;;;;;;14.37;7.63;;;23.70;99.90;;;;;;5128058;28;20761;-49
2022/08/20 12:20:28;;;;;;;8.03;6.60;;;23.60;99.90;;;;;;5118057;28;20236;-50
2022/08/20 12:22:58;;;;;;;14.23;8.50;;;23.60;99.90;;;;;;5128690;28;20200;-49
2022/08/20 12:25:29;;;;;;;8.57;7.50;;;23.60;99.90;;;;;;5117673;28;20214;-50
2022/08/20 12:28:00;;;;;;;8.83;6.93;;;23.70;99.90;;;;;;5217871;28;20193;-49
2022/08/20 12:30:31;;;;;;;9.33;8.33;;;23.70;99.90;;;;;;5132570;28;20194;-49
2022/08/20 12:33:02;;;;;;;7.33;6.73;;;23.70;99.90;;;;;;5131728;28;20217;-49
2022/08/20 12:35:33;;;;;;;8.80;7.17;;;23.70;99.90;;;;;;5109136;28;20466;-50
2022/08/20 12:38:05;;;;;;;7.37;6.77;;;23.70;99.90;;;;;;5117768;28;20218;-49
2022/08/20 12:40:35;;;;;;;9.13;6.23;;;23.80;99.90;;;;;;5125202;28;20329;-48
2022/08/20 12:43:07;;;;;;;9.50;6.73;;;23.80;99.90;;;;;;5127614;28;21030;-48
2022/08/20 12:45:38;;;;;;;20.27;8.50;;;23.80;99.90;;;;;;5115872;28;20252;-49
2022/08/20 12:48:11;;;;;;;10.20;7.60;;;23.90;99.90;;;;;;5118419;28;20950;-50
2022/08/20 12:50:44;;;;;;;7.70;6.47;;;23.80;99.90;;;;;;5120875;28;20218;-50
2022/08/20 12:53:15;;;;;;;5.73;5.23;;;23.80;99.90;;;;;;5122917;28;20591;-50
2022/08/20 12:55:46;;;;;;;8.60;7.13;;;23.90;99.90;;;;;;5109291;28;20541;-50
2022/08/20 12:58:17;;;;;;;6.30;5.80;;;23.80;99.90;;;;;;5116630;28;20457;-49